Tucumcari ASC Data

Date Time Air Temperature Relative Humidity Dewpoint Windchill Heat Index Wind Speed Wind Dir. Rain Solar Radiation Soil Temperature
2m 2m 3m 3m 10cm
US/Mountain F % F F F MPH deg in MJ/m^2 F
max avg avg
2021-06-11 00:05:00 77.9 11.1 19.4 77.9 77.9 2.6 4.2 3.2 228.4 234.7 0.00 0.0000000 86.4
2021-06-11 00:10:00 77.4 11.3 19.3 77.4 77.4 1.9 3.3 2.2 198.7 224.9 0.00 0.0000000 86.2
2021-06-11 00:15:00 77.3 11.3 19.2 77.3 77.3 3.7 3.7 2.5 222.9 192.2 0.00 0.0000000 86.1
2021-06-11 00:20:00 76.9 11.4 19.2 76.9 76.9 2.8 4.7 3.6 205.3 229.9 0.00 0.0000000 85.9
2021-06-11 00:25:00 76.6 11.7 19.7 76.6 76.6 3.5 3.7 2.7 136.3 176.2 0.00 0.0000000 85.8
2021-06-11 00:30:00 75.0 12.7 20.2 75.0 75.0 3.5 3.8 3.4 144.7 141.2 0.00 0.0000000 85.6
2021-06-11 00:35:00 75.2 12.6 20.3 75.2 75.2 4.0 4.0 3.1 163.4 154.1 0.00 0.0000000 85.5
2021-06-11 00:40:00 75.7 12.5 20.4 75.7 75.7 3.7 5.8 4.0 215.5 193.0 0.00 0.0000000 85.3
2021-06-11 00:45:00 75.6 12.6 20.6 75.6 75.6 4.9 4.9 3.7 189.0 199.6 0.00 0.0000000 85.2
2021-06-11 00:50:00 74.7 13.0 20.5 74.7 74.7 3.8 4.7 3.6 166.9 211.8 0.00 0.0000000 85.0
2021-06-11 00:55:00 73.8 14.4 22.2 73.8 73.8 2.6 4.0 3.2 82.5 122.6 0.00 0.0000000 84.9
2021-06-11 01:00:00 73.0 14.0 20.9 73.0 73.0 1.0 3.0 1.9 65.7 71.2 0.00 0.0000000 84.8
2021-06-11 01:05:00 73.9 13.1 20.2 73.9 73.9 1.9 2.6 1.3 238.1 108.6 0.00 0.0000000 84.6
2021-06-11 01:10:00 74.2 13.0 20.2 74.2 74.2 1.3 1.9 1.0 202.6 227.2 0.00 0.0000000 84.5
2021-06-11 01:15:00 74.1 13.0 20.1 74.1 74.1 1.3 1.5 0.8 150.0 138.2 0.00 0.0000000 84.3
2021-06-11 01:20:00 74.2 13.0 20.2 74.2 74.2 4.2 4.2 2.3 96.8 117.4 0.00 0.0000000 84.2
2021-06-11 01:25:00 73.2 13.7 20.7 73.2 73.2 5.8 5.8 4.6 82.5 98.3 0.00 0.0000000 84.1
2021-06-11 01:30:00 72.8 14.3 21.2 72.8 72.8 2.1 6.3 3.8 112.5 101.9 0.00 0.0000000 83.9
2021-06-11 01:35:00 75.3 12.0 19.1 75.3 75.3 3.3 5.1 2.9 198.0 171.3 0.00 0.0000000 83.8
2021-06-11 01:40:00 76.5 11.5 19.0 76.5 76.5 3.0 4.0 3.2 175.8 181.3 0.00 0.0000000 83.6
2021-06-11 01:45:00 75.3 12.6 20.3 75.3 75.3 3.3 4.4 3.4 116.7 139.2 0.00 0.0000000 83.5
2021-06-11 01:50:00 75.8 12.1 19.7 75.8 75.8 4.4 5.8 4.2 130.2 125.4 0.00 0.0000000 83.4
2021-06-11 01:55:00 75.8 12.4 20.3 75.8 75.8 2.4 5.5 3.6 158.7 159.0 0.00 0.0000000 83.3
2021-06-11 02:00:00 76.3 12.0 19.9 76.3 76.3 4.9 5.6 4.3 178.5 168.3 0.00 0.0000000 83.1
2021-06-11 02:05:00 75.5 12.4 20.0 75.5 75.5 5.1 6.2 4.7 200.0 187.3 0.00 0.0000000 83.0
2021-06-11 02:10:00 75.1 12.6 20.1 75.1 75.1 3.0 6.5 4.1 189.8 174.5 0.00 0.0000000 82.9
2021-06-11 02:15:00 75.0 12.5 19.8 75.0 75.0 4.4 6.7 4.3 221.4 179.1 0.00 0.0000000 82.8
2021-06-11 02:20:00 75.3 12.5 20.1 75.3 75.3 4.7 5.1 3.6 216.4 220.9 0.00 0.0000000 82.7
2021-06-11 02:25:00 76.3 11.9 19.9 76.3 76.3 6.9 7.2 5.6 223.2 210.9 0.00 0.0000000 82.5
2021-06-11 02:30:00 75.8 12.8 21.1 75.8 75.8 2.2 6.3 4.6 166.6 165.1 0.00 0.0000000 82.4
2021-06-11 02:35:00 74.1 13.7 21.3 74.1 74.1 2.2 3.3 2.4 163.2 167.9 0.00 0.0000000 82.3
2021-06-11 02:40:00 73.7 13.7 21.0 73.7 73.7 3.3 3.8 3.1 134.9 149.1 0.00 0.0000000 82.2
2021-06-11 02:45:00 73.6 13.8 21.1 73.6 73.6 4.2 4.7 4.0 166.1 153.6 0.00 0.0000000 82.1
2021-06-11 02:50:00 73.5 13.9 21.2 73.5 73.5 6.3 6.3 3.9 212.7 169.4 0.00 0.0000000 82.0
2021-06-11 02:55:00 75.7 13.2 21.8 75.7 75.7 4.2 8.5 5.8 236.1 200.9 0.00 0.0000000 81.9
2021-06-11 03:00:00 73.8 14.3 22.0 73.8 73.8 4.7 5.6 3.7 7.9 329.3 0.00 0.0000000 81.8
2021-06-11 03:05:00 74.4 13.9 21.9 74.4 74.4 4.0 4.4 3.5 245.3 266.3 0.00 0.0000000 81.7
2021-06-11 03:10:00 75.0 13.7 21.9 75.0 75.0 4.6 4.7 4.0 212.3 225.1 0.00 0.0000000 81.6
2021-06-11 03:15:00 74.7 14.1 22.5 74.7 74.7 4.0 4.6 3.9 167.0 191.5 0.00 0.0000000 81.4
2021-06-11 03:20:00 73.8 14.7 22.7 73.8 73.8 3.8 5.6 4.0 202.2 190.7 0.00 0.0000000 81.4
2021-06-11 03:25:00 73.3 14.8 22.5 73.3 73.3 3.3 3.5 2.5 283.5 263.0 0.00 0.0000000 81.3
2021-06-11 03:30:00 72.9 14.7 22.1 72.9 72.9 5.3 5.3 4.2 270.8 307.7 0.00 0.0000000 81.2
2021-06-11 03:35:00 72.2 14.7 21.4 72.2 72.2 4.9 6.0 4.7 233.9 243.4 0.00 0.0000000 81.1
2021-06-11 03:40:00 74.2 13.0 20.3 74.2 74.2 5.8 6.9 5.6 241.2 231.4 0.00 0.0000000 80.9
2021-06-11 03:45:00 72.8 13.9 20.6 72.8 72.8 4.9 6.5 5.4 232.0 245.6 0.00 0.0000000 80.9
2021-06-11 03:50:00 73.1 13.7 20.6 73.1 73.1 3.3 5.6 4.3 235.4 228.5 0.00 0.0000000 80.8
2021-06-11 03:55:00 73.7 13.1 20.0 73.7 73.7 4.7 5.3 4.3 215.0 231.4 0.00 0.0000000 80.6
2021-06-11 04:00:00 73.8 13.0 19.8 73.8 73.8 4.2 6.3 4.7 227.0 218.8 0.00 0.0000000 80.5
2021-06-11 04:05:00 74.1 12.7 19.5 74.1 74.1 5.3 6.5 5.3 249.8 233.8 0.00 0.0000000 80.4
2021-06-11 04:10:00 74.0 12.9 19.8 74.0 74.0 5.1 6.3 5.2 202.8 232.9 0.00 0.0000000 80.3
2021-06-11 04:15:00 72.8 13.7 20.2 72.8 72.8 4.0 6.2 4.9 165.5 195.4 0.00 0.0000000 80.2
2021-06-11 04:20:00 70.3 15.8 21.7 70.3 70.3 2.8 4.6 3.5 163.7 156.4 0.00 0.0000000 80.2
2021-06-11 04:25:00 69.8 16.0 21.6 69.8 69.8 2.4 3.0 2.3 249.2 189.2 0.00 0.0000000 80.0
2021-06-11 04:30:00 71.1 14.8 20.8 71.1 71.1 3.8 6.5 4.2 256.2 256.6 0.00 0.0000000 79.9
2021-06-11 04:35:00 71.7 13.8 19.6 71.7 71.7 5.3 7.2 5.1 222.4 241.5 0.00 0.0000000 79.9
2021-06-11 04:40:00 72.2 13.5 19.5 72.2 72.2 4.4 6.5 5.1 178.2 207.3 0.00 0.0000000 79.7
2021-06-11 04:45:00 71.7 14.1 20.0 71.7 71.7 5.5 6.2 4.5 181.5 185.2 0.00 0.0000000 79.6
2021-06-11 04:50:00 71.2 14.1 19.7 71.2 71.2 3.7 5.8 4.2 194.3 179.5 0.00 0.0000000 79.6
2021-06-11 04:55:00 70.7 15.4 21.4 70.7 70.7 2.8 5.3 3.7 161.9 165.8 0.00 0.0000000 79.4
2021-06-11 05:00:00 69.1 16.4 21.5 69.1 69.1 2.8 3.5 2.8 165.1 152.8 0.00 0.0000000 79.3
2021-06-11 05:05:00 69.1 16.3 21.4 69.1 69.1 2.2 3.5 2.9 168.3 161.0 0.00 0.0000000 79.3
2021-06-11 05:10:00 68.8 16.0 20.9 68.8 68.8 2.6 3.1 2.7 167.0 163.4 0.00 0.0000000 79.2
2021-06-11 05:15:00 68.7 16.0 20.6 68.7 68.7 3.8 4.4 3.4 194.5 181.1 0.00 0.0000000 79.1
2021-06-11 05:20:00 69.1 15.4 20.1 69.1 69.1 3.3 4.6 3.7 229.4 195.3 0.00 0.0000000 79.0
2021-06-11 05:25:00 68.3 16.3 20.8 68.3 68.3 4.0 4.7 3.8 258.5 225.9 0.00 0.0000000 78.9
2021-06-11 05:30:00 67.1 17.1 20.9 67.1 67.1 4.9 5.6 4.7 284.4 264.5 0.00 0.0000000 78.8
2021-06-11 05:35:00 66.4 17.1 20.4 66.4 66.4 5.5 6.2 5.6 278.2 281.2 0.00 0.0000000 78.7
2021-06-11 05:40:00 66.4 17.1 20.3 66.4 66.4 6.2 7.1 5.9 270.1 267.0 0.00 0.0000000 78.6
2021-06-11 05:45:00 66.1 17.1 20.2 66.1 66.1 6.7 6.7 5.9 276.0 260.7 0.00 0.0000000 78.5
2021-06-11 05:50:00 66.2 17.1 20.1 66.2 66.2 5.6 6.3 5.7 261.2 266.0 0.00 0.0001817 78.4
2021-06-11 05:55:00 65.7 17.3 20.1 65.7 65.7 6.5 6.5 6.0 265.2 265.6 0.00 0.0007962 78.3
2021-06-11 06:00:00 65.5 17.6 20.3 65.5 65.5 5.8 6.3 5.8 263.6 269.0 0.00 0.0015318 78.2
2021-06-11 06:05:00 65.0 18.2 20.7 65.0 65.0 5.1 6.2 5.3 278.9 273.8 0.00 0.0022802 78.1
2021-06-11 06:10:00 64.6 18.6 20.9 64.6 64.6 4.6 5.8 5.0 278.6 271.7 0.00 0.0032569 77.9
2021-06-11 06:15:00 65.2 18.0 20.6 65.2 65.2 4.0 4.7 4.2 271.6 284.3 0.00 0.0047186 77.8
2021-06-11 06:20:00 65.0 18.7 21.3 65.0 65.0 3.5 4.2 3.7 304.1 270.4 0.00 0.0079991 77.7
2021-06-11 06:25:00 64.9 19.0 21.6 64.9 64.9 4.0 4.0 3.2 285.0 286.2 0.00 0.0235879 77.6
2021-06-11 06:30:00 65.8 18.8 22.2 65.8 65.8 4.6 6.3 4.7 270.6 280.3 0.00 0.0369850 77.5
2021-06-11 06:35:00 67.2 17.8 22.0 67.2 67.2 5.1 6.5 5.4 270.8 277.0 0.00 0.0454913 77.5
2021-06-11 06:40:00 68.1 17.6 22.5 68.1 68.1 4.2 6.0 4.6 227.3 260.0 0.00 0.0531077 77.4
2021-06-11 06:45:00 68.6 17.1 22.1 68.6 68.6 4.2 6.5 5.4 248.6 242.8 0.00 0.0582518 77.4
2021-06-11 06:50:00 69.2 17.1 22.6 69.2 69.2 3.8 5.6 4.1 225.7 233.3 0.00 0.0627713 77.3
2021-06-11 06:55:00 69.7 16.9 22.7 69.7 69.7 4.6 5.1 4.0 258.6 222.6 0.00 0.0497620 77.3
2021-06-11 07:00:00 70.1 17.0 23.2 70.1 70.1 2.8 4.9 3.9 196.7 220.1 0.00 0.0559808 77.2
2021-06-11 07:05:00 70.8 17.0 23.8 70.8 70.8 2.8 4.4 3.3 233.6 225.8 0.00 0.0721762 77.2
2021-06-11 07:10:00 71.3 16.6 23.6 71.3 71.3 4.2 5.8 4.3 249.5 239.2 0.00 0.0763585 77.2
2021-06-11 07:15:00 72.2 16.2 23.7 72.2 72.2 4.6 5.3 4.1 244.2 243.4 0.00 0.0926361 77.2
2021-06-11 07:20:00 72.6 16.0 23.8 72.6 72.6 4.0 7.1 5.2 230.9 241.1 0.00 0.0982249 77.2
2021-06-11 07:25:00 73.1 15.3 23.1 73.1 73.1 7.2 7.8 5.6 238.3 237.5 0.00 0.1040796 77.3
2021-06-11 07:30:00 73.8 15.2 23.5 73.8 73.8 6.3 7.6 6.1 233.2 238.0 0.00 0.1173284 77.3
2021-06-11 07:35:00 74.2 15.7 24.7 74.2 74.2 4.9 6.5 5.5 226.3 237.7 0.00 0.1035747 77.4
2021-06-11 07:40:00 74.4 15.6 24.7 74.4 74.4 6.5 8.1 6.2 253.1 240.9 0.00 0.0762577 77.5
2021-06-11 07:45:00 74.7 15.7 25.1 74.7 74.7 6.2 7.6 6.1 239.3 245.8 0.00 0.1050496 77.6
2021-06-11 07:50:00 75.5 15.2 24.8 75.5 75.5 4.6 7.4 6.3 264.8 251.0 0.00 0.1086987 77.7
2021-06-11 07:55:00 76.2 15.3 25.6 76.2 76.2 4.9 6.9 5.4 255.7 254.4 0.00 0.1076804 77.8
2021-06-11 08:00:00 76.7 15.0 25.6 76.7 76.7 6.7 7.4 5.9 250.6 248.1 0.00 0.0845496 77.8
2021-06-11 08:05:00 77.1 13.7 23.6 77.1 77.1 7.8 9.0 6.9 251.8 251.8 0.00 0.1121600 78.0
2021-06-11 08:10:00 77.6 13.4 23.6 77.6 77.6 7.1 8.8 6.4 244.1 251.9 0.00 0.1075754 78.0
2021-06-11 08:15:00 78.1 14.3 25.5 78.1 78.1 5.5 8.7 6.1 256.6 247.5 0.00 0.1108818 78.2
2021-06-11 08:20:00 78.0 14.2 25.2 78.0 78.0 7.2 9.2 7.0 233.3 259.5 0.00 0.1011145 78.3
2021-06-11 08:25:00 78.3 14.0 25.1 78.3 78.3 6.0 8.7 7.2 256.1 257.4 0.00 0.1094175 78.4
2021-06-11 08:30:00 79.6 12.6 23.6 79.6 79.6 9.7 11.0 8.1 263.2 265.4 0.00 0.1687321 78.5
2021-06-11 08:35:00 80.3 13.2 25.4 80.3 80.3 5.8 9.7 6.9 264.1 254.2 0.00 0.1247585 78.7
2021-06-11 08:40:00 81.2 12.7 25.2 81.2 81.2 7.8 8.7 6.7 248.7 255.3 0.00 0.1674914 78.8
2021-06-11 08:45:00 81.6 13.0 26.0 81.6 81.6 6.9 8.8 7.3 260.3 259.7 0.00 0.1705292 79.0
2021-06-11 08:50:00 82.1 13.3 26.9 82.1 82.1 4.7 7.8 6.1 260.2 262.1 0.00 0.1818954 79.1
2021-06-11 08:55:00 82.7 13.6 28.0 82.7 82.7 5.6 6.9 5.6 302.7 270.4 0.00 0.1925906 79.3
2021-06-11 09:00:00 82.4 14.1 28.6 82.4 82.4 6.3 8.3 6.1 275.5 271.0 0.00 0.1973064 79.4
2021-06-11 09:05:00 82.9 14.5 29.6 82.9 82.9 3.7 6.9 4.3 287.2 283.7 0.00 0.2020160 79.6
2021-06-11 09:10:00 83.8 13.7 29.0 83.8 83.8 4.7 6.9 4.3 277.2 286.2 0.00 0.2066631 79.8
2021-06-11 09:15:00 84.5 14.7 31.3 84.5 84.5 5.3 6.3 4.4 296.8 303.0 0.00 0.2107969 80.0
2021-06-11 09:20:00 84.7 13.0 28.3 84.7 84.7 7.2 8.1 5.9 317.4 312.3 0.00 0.2157366 80.3
2021-06-11 09:25:00 85.2 12.8 28.4 85.2 85.2 4.6 10.3 6.8 317.9 315.9 0.00 0.2203242 80.5
2021-06-11 09:30:00 85.5 12.9 28.9 85.5 85.5 7.6 9.9 7.2 309.3 316.0 0.00 0.2252940 80.8
2021-06-11 09:35:00 86.8 12.0 28.1 86.8 86.8 5.8 7.1 5.3 341.8 334.5 0.00 0.2293963 81.0
2021-06-11 09:40:00 85.8 12.7 28.7 85.8 85.8 5.6 11.0 7.6 317.0 304.6 0.00 0.2337291 81.3
2021-06-11 09:45:00 86.2 12.8 29.2 86.2 86.2 8.0 9.9 7.8 261.4 305.0 0.00 0.2380660 81.6
2021-06-11 09:50:00 87.7 12.5 29.7 87.7 87.7 8.0 9.9 7.7 323.9 291.3 0.00 0.2429000 81.9
2021-06-11 09:55:00 87.7 12.7 30.2 87.7 87.7 6.5 10.3 8.4 303.0 312.3 0.00 0.2478050 82.2
2021-06-11 10:00:00 88.6 12.0 29.6 88.6 88.6 5.6 10.6 7.4 315.7 317.6 0.00 0.2520120 82.5
2021-06-11 10:05:00 89.2 12.3 30.7 89.2 89.2 8.3 9.6 6.9 318.4 326.6 0.00 0.2559754 82.8
2021-06-11 10:10:00 90.5 11.1 28.9 90.5 90.5 9.0 9.7 6.2 339.5 332.5 0.00 0.2600998 83.1
2021-06-11 10:15:00 90.1 11.2 28.9 90.1 90.1 8.7 10.6 7.6 15.2 0.3 0.00 0.2627061 83.4
2021-06-11 10:20:00 89.4 11.8 29.7 89.4 89.4 8.3 13.7 10.2 12.6 19.8 0.00 0.2652611 83.8
2021-06-11 10:25:00 89.2 12.7 31.3 89.2 89.2 13.3 14.6 10.4 54.5 40.2 0.00 0.2704004 84.1
2021-06-11 10:30:00 89.3 12.7 31.5 89.3 89.3 12.1 14.6 10.2 40.4 26.7 0.00 0.2737393 84.5
2021-06-11 10:35:00 90.5 13.5 34.0 90.5 90.5 7.6 12.6 9.3 28.0 30.6 0.00 0.2775910 84.8
2021-06-11 10:40:00 90.0 13.9 34.2 90.0 90.0 9.6 15.1 9.8 32.1 39.1 0.00 0.2798049 85.1
2021-06-11 10:45:00 89.2 13.4 32.7 89.2 89.2 15.3 15.3 12.1 60.2 30.7 0.00 0.2836985 85.4
2021-06-11 10:50:00 90.0 13.3 33.0 90.0 90.0 12.6 18.5 12.6 58.2 56.2 0.00 0.2875668 85.7
2021-06-11 10:55:00 90.1 13.9 34.3 90.1 90.1 7.8 15.5 11.3 46.9 40.6 0.00 0.2896255 86.1
2021-06-11 11:00:00 89.9 17.0 39.2 89.9 89.9 19.6 19.6 11.8 35.9 42.5 0.00 0.2924688 86.4
2021-06-11 11:05:00 88.6 20.6 43.1 88.6 88.6 7.6 19.4 12.6 73.7 26.2 0.00 0.2923983 86.7
2021-06-11 11:10:00 88.1 22.1 44.7 88.1 88.1 14.9 19.0 13.1 65.7 46.1 0.00 0.2948427 87.0
2021-06-11 11:15:00 87.5 22.2 44.2 87.5 87.5 16.4 18.0 14.0 31.6 43.1 0.00 0.2974327 87.3
2021-06-11 11:20:00 87.0 23.0 44.7 87.0 87.0 20.3 20.3 14.4 63.1 54.6 0.00 0.2996479 87.6
2021-06-11 11:25:00 87.6 22.5 44.7 87.6 87.6 13.1 20.6 14.7 38.2 44.8 0.00 0.3026717 87.9
2021-06-11 11:30:00 87.1 23.3 45.1 87.1 87.1 13.3 19.0 13.3 53.8 51.9 0.00 0.3039709 88.1
2021-06-11 11:35:00 86.4 23.0 44.2 86.4 86.4 15.6 16.5 13.3 27.8 45.2 0.00 0.3060158 88.5
2021-06-11 11:40:00 86.5 22.9 44.3 86.5 86.5 9.0 16.7 12.8 53.1 44.8 0.00 0.3081783 88.7
2021-06-11 11:45:00 88.1 22.1 44.6 88.1 88.1 15.3 15.3 10.7 18.9 44.6 0.00 0.3105850 89.0
2021-06-11 11:50:00 86.6 22.8 44.2 86.6 86.6 10.3 16.7 12.2 22.7 30.8 0.00 0.3115460 89.3
2021-06-11 11:55:00 86.6 22.5 43.9 86.6 86.6 11.7 18.5 12.3 39.4 41.3 0.00 0.3138668 89.5
2021-06-11 12:00:00 86.7 22.1 43.4 86.7 86.7 15.6 15.6 12.5 43.2 32.0 0.00 0.3152896 89.8
2021-06-11 12:05:00 86.9 22.2 43.7 86.9 86.9 9.7 16.9 13.0 52.2 54.6 0.00 0.3176169 90.1
2021-06-11 12:10:00 87.1 21.6 43.2 87.1 87.1 11.0 18.9 14.1 33.9 51.7 0.00 0.3184947 90.4
2021-06-11 12:15:00 86.4 22.2 43.3 86.4 86.4 12.2 16.5 13.2 46.9 54.9 0.00 0.3202336 90.6
2021-06-11 12:20:00 87.2 20.9 42.4 87.2 87.2 11.0 21.5 13.4 54.4 57.2 0.00 0.3215557 90.9
2021-06-11 12:25:00 87.4 21.5 43.3 87.4 87.4 10.1 18.9 12.0 67.5 48.4 0.00 0.3218076 91.1
2021-06-11 12:30:00 86.6 21.6 42.7 86.6 86.6 13.5 18.7 14.8 41.1 57.4 0.00 0.3252678 91.4
2021-06-11 12:35:00 87.1 21.2 42.7 87.1 87.1 14.2 19.2 14.8 52.0 63.9 0.00 0.3067168 91.7
2021-06-11 12:40:00 86.6 21.7 42.9 86.6 86.6 9.4 16.9 13.5 49.3 53.4 0.00 0.2474689 91.9
2021-06-11 12:45:00 88.6 20.1 42.6 88.6 88.6 14.9 19.2 14.3 50.2 59.2 0.00 0.3323359 92.2
2021-06-11 12:50:00 87.1 21.4 43.0 87.1 87.1 11.3 18.0 13.0 58.1 50.9 0.00 0.2159442 92.4
2021-06-11 12:55:00 87.6 21.1 42.9 87.6 87.6 16.4 16.4 11.6 66.8 56.3 0.00 0.2404193 92.6
2021-06-11 13:00:00 88.1 20.3 42.4 88.1 88.1 15.5 19.2 14.6 64.7 63.6 0.00 0.3293093 92.8
2021-06-11 13:05:00 88.4 20.5 42.9 88.4 88.4 16.4 19.2 13.9 72.8 63.4 0.00 0.3320222 93.0
2021-06-11 13:10:00 88.7 19.1 41.2 88.7 88.7 11.3 18.5 14.3 30.1 52.4 0.00 0.3331819 93.2
2021-06-11 13:15:00 88.7 19.1 41.3 88.7 88.7 11.3 16.7 13.1 50.1 56.2 0.00 0.3346224 93.4
2021-06-11 13:20:00 89.3 18.9 41.5 89.3 89.3 14.2 18.1 12.7 56.8 53.2 0.00 0.3288620 93.6
2021-06-11 13:25:00 89.3 18.4 40.8 89.3 89.3 8.0 15.6 12.6 51.5 49.9 0.00 0.3284400 93.7
2021-06-11 13:30:00 89.8 17.5 39.9 89.8 89.8 11.2 15.8 12.2 63.0 54.3 0.00 0.3248901 93.9
2021-06-11 13:35:00 90.2 17.6 40.4 90.2 90.2 9.2 15.3 12.8 34.3 44.9 0.00 0.3193165 94.1
2021-06-11 13:40:00 91.3 17.1 40.6 91.3 91.3 14.0 16.5 12.2 21.3 56.0 0.00 0.3189009 94.4
2021-06-11 13:45:00 90.4 16.9 39.5 90.4 90.4 14.9 15.3 11.4 75.1 43.4 0.00 0.3167008 94.6
2021-06-11 13:50:00 90.3 16.8 39.3 90.3 90.3 14.4 19.2 13.4 54.3 39.2 0.00 0.3146289 94.7
2021-06-11 13:55:00 90.3 16.5 38.8 90.3 90.3 10.6 18.5 13.8 38.3 50.9 0.00 0.3132828 94.9
2021-06-11 14:00:00 90.1 16.2 38.2 90.1 90.1 13.0 19.9 15.0 74.4 53.3 0.00 0.3108114 95.0
2021-06-11 14:05:00 91.0 15.4 37.7 91.0 91.0 13.1 16.7 13.1 60.2 41.3 0.00 0.3083858 95.2
2021-06-11 14:10:00 91.1 15.5 37.9 91.1 91.1 13.1 16.7 12.2 41.2 42.9 0.00 0.3063631 95.3
2021-06-11 14:15:00 91.4 15.3 37.8 91.4 91.4 18.5 18.5 13.5 47.2 58.0 0.00 0.3049475 95.4
2021-06-11 14:20:00 90.4 15.0 36.5 90.4 90.4 14.6 22.8 15.9 25.1 56.0 0.00 0.3031481 95.5
2021-06-11 14:25:00 91.1 14.6 36.3 91.1 91.1 13.7 17.8 12.8 23.8 37.3 0.00 0.3001713 95.6
2021-06-11 14:30:00 90.4 14.5 35.7 90.4 90.4 12.2 18.0 12.9 37.3 35.0 0.00 0.2982293 95.7
2021-06-11 14:35:00 90.8 13.9 34.9 90.8 90.8 17.4 17.4 13.7 52.6 44.3 0.00 0.2959297 95.9
2021-06-11 14:40:00 91.3 14.1 35.7 91.3 91.3 14.7 18.3 12.6 44.1 45.1 0.00 0.2928310 96.0
2021-06-11 14:45:00 90.7 13.5 34.1 90.7 90.7 15.3 17.2 14.0 22.4 43.6 0.00 0.2896791 96.2
2021-06-11 14:50:00 90.8 13.8 34.7 90.8 90.8 17.6 19.4 15.2 71.2 47.5 0.00 0.2871626 96.3
2021-06-11 14:55:00 90.8 13.7 34.5 90.8 90.8 6.7 21.5 13.6 44.6 46.7 0.00 0.2842455 96.4
2021-06-11 15:00:00 91.3 13.0 33.6 91.3 91.3 18.3 20.3 14.6 62.2 57.2 0.00 0.2810800 96.6
2021-06-11 15:05:00 90.6 13.4 33.8 90.6 90.6 12.2 19.0 15.3 45.4 52.9 0.00 0.2776957 96.7
2021-06-11 15:10:00 90.7 13.0 33.0 90.7 90.7 15.1 17.6 12.4 64.8 43.8 0.00 0.2748168 96.8
2021-06-11 15:15:00 90.9 12.7 32.7 90.9 90.9 11.0 15.3 11.5 17.4 42.8 0.00 0.2706687 96.9
2021-06-11 15:20:00 91.4 13.0 33.6 91.4 91.4 14.6 16.2 11.8 58.6 42.3 0.00 0.2671675 97.0
2021-06-11 15:25:00 91.2 13.1 33.6 91.2 91.2 10.3 15.8 13.1 53.3 44.5 0.00 0.2634830 97.2
2021-06-11 15:30:00 91.4 12.5 32.7 91.4 91.4 17.1 17.6 12.5 51.1 46.3 0.00 0.2590604 97.2
2021-06-11 15:35:00 90.8 12.9 32.9 90.8 90.8 12.2 16.7 13.2 57.6 44.0 0.00 0.2557648 97.3
2021-06-11 15:40:00 91.6 13.2 34.2 91.6 91.6 9.4 16.5 12.1 38.0 49.9 0.00 0.2517874 97.4
2021-06-11 15:45:00 91.4 12.9 33.4 91.4 91.4 13.3 19.9 14.6 48.7 56.1 0.00 0.2475563 97.4
2021-06-11 15:50:00 91.4 12.8 33.3 91.4 91.4 12.4 18.3 14.6 53.8 57.1 0.00 0.2441482 97.4
2021-06-11 15:55:00 92.0 12.6 33.3 92.0 92.0 11.9 19.8 13.1 53.5 59.4 0.00 0.2397374 97.4
2021-06-11 16:00:00 91.6 12.3 32.5 91.6 91.6 13.9 18.7 13.6 58.2 52.9 0.00 0.2355958 97.4
2021-06-11 16:05:00 91.2 13.1 33.7 91.2 91.2 19.2 19.2 13.8 51.8 46.7 0.00 0.2308664 97.4
2021-06-11 16:10:00 91.7 12.6 33.1 91.7 91.7 12.8 20.1 14.1 69.9 58.9 0.00 0.2263156 97.3
2021-06-11 16:15:00 92.2 12.7 33.7 92.2 92.2 14.9 17.8 11.8 37.0 60.5 0.00 0.2223739 97.2
2021-06-11 16:20:00 91.7 13.1 34.1 91.7 91.7 11.7 17.2 13.8 65.5 48.8 0.00 0.2168880 97.1
2021-06-11 16:25:00 91.9 12.7 33.4 91.9 91.9 12.2 15.3 11.9 66.1 54.8 0.00 0.2122731 97.0
2021-06-11 16:30:00 91.8 12.0 32.0 91.8 91.8 7.8 18.3 12.0 65.1 60.1 0.00 0.2077606 96.9
2021-06-11 16:35:00 92.1 12.7 33.6 92.1 92.1 12.8 17.6 12.0 76.4 60.7 0.00 0.2026334 96.8
2021-06-11 16:40:00 92.2 12.8 33.9 92.2 92.2 14.6 17.1 13.3 60.1 64.5 0.00 0.1976717 96.8
2021-06-11 16:45:00 92.2 13.0 34.4 92.2 92.2 12.2 17.2 12.8 52.1 63.5 0.00 0.1923000 96.7
2021-06-11 16:50:00 92.0 12.9 34.0 92.0 92.0 10.8 20.1 14.0 54.5 53.5 0.00 0.1877198 96.7
2021-06-11 16:55:00 92.2 13.2 34.7 92.2 92.2 15.3 16.2 11.9 66.2 51.0 0.00 0.1824906 96.6
2021-06-11 17:00:00 91.6 13.3 34.4 91.6 91.6 10.8 18.1 14.5 51.0 51.0 0.00 0.1770099 96.6
2021-06-11 17:05:00 91.6 13.7 35.2 91.6 91.6 13.7 16.0 12.1 64.8 48.3 0.00 0.1721060 96.6
2021-06-11 17:10:00 91.8 13.3 34.5 91.8 91.8 11.9 18.0 13.6 53.9 59.3 0.00 0.1674203 96.5
2021-06-11 17:15:00 91.6 13.7 35.2 91.6 91.6 17.2 17.2 13.8 58.4 57.8 0.00 0.1614883 96.5
2021-06-11 17:20:00 91.3 13.7 34.9 91.3 91.3 14.4 19.6 15.1 74.0 60.3 0.00 0.1559518 96.5
2021-06-11 17:25:00 91.3 14.1 35.6 91.3 91.3 12.1 18.9 13.7 58.9 53.1 0.00 0.1509451 96.4
2021-06-11 17:30:00 91.7 14.2 36.1 91.7 91.7 12.2 18.1 12.3 63.7 64.0 0.00 0.1456474 96.4
2021-06-11 17:35:00 91.6 13.7 35.2 91.6 91.6 13.7 19.8 13.5 73.9 58.1 0.00 0.1402866 96.4
2021-06-11 17:40:00 91.3 13.8 35.1 91.3 91.3 14.7 17.6 13.5 63.4 48.3 0.00 0.1346643 96.3
2021-06-11 17:45:00 91.3 14.3 36.0 91.3 91.3 8.3 16.7 13.3 71.6 57.8 0.00 0.1294899 96.3
2021-06-11 17:50:00 91.0 14.0 35.1 91.0 91.0 13.7 20.3 13.6 62.4 65.6 0.00 0.1246285 96.2
2021-06-11 17:55:00 90.6 14.5 35.7 90.6 90.6 17.4 18.3 14.5 57.4 66.5 0.00 0.1192203 96.2
2021-06-11 18:00:00 90.8 14.5 36.0 90.8 90.8 14.4 18.3 13.6 69.8 58.2 0.00 0.1141358 96.2
2021-06-11 18:05:00 90.6 14.2 35.2 90.6 90.6 10.8 15.6 12.1 61.3 67.4 0.00 0.1087231 96.0
2021-06-11 18:10:00 90.1 14.8 35.9 90.1 90.1 10.8 18.9 14.7 74.1 60.9 0.00 0.1034354 96.0
2021-06-11 18:15:00 90.1 14.9 36.1 90.1 90.1 14.7 18.0 13.2 57.7 64.9 0.00 0.0983630 95.9
2021-06-11 18:20:00 89.8 15.1 36.1 89.8 89.8 11.9 16.4 13.1 51.2 63.4 0.00 0.0929708 95.8
2021-06-11 18:25:00 89.2 15.0 35.5 89.2 89.2 16.4 21.2 15.9 79.3 64.4 0.00 0.0881146 95.7
2021-06-11 18:30:00 89.3 15.1 35.9 89.3 89.3 10.3 16.9 13.4 46.2 56.9 0.00 0.0833460 95.6
2021-06-11 18:35:00 89.5 15.3 36.3 89.5 89.5 11.3 15.5 12.3 63.0 57.9 0.00 0.0778927 95.5
2021-06-11 18:40:00 89.1 15.3 36.0 89.1 89.1 12.6 16.9 12.8 65.9 66.2 0.00 0.0730277 95.4
2021-06-11 18:45:00 88.8 15.5 36.1 88.8 88.8 14.9 20.1 13.6 50.6 60.8 0.00 0.0680462 95.3
2021-06-11 18:50:00 88.4 15.7 36.0 88.4 88.4 14.9 18.1 14.6 55.2 62.7 0.00 0.0633734 95.2
2021-06-11 18:55:00 88.3 15.8 36.0 88.3 88.3 10.1 17.6 13.5 44.8 63.7 0.00 0.0586342 95.0
2021-06-11 19:00:00 88.1 15.8 36.0 88.1 88.1 13.1 17.4 13.1 60.2 69.5 0.00 0.0535687 94.9
2021-06-11 19:05:00 87.6 16.0 35.9 87.6 87.6 14.2 15.6 12.4 45.5 58.8 0.00 0.0488286 94.7
2021-06-11 19:10:00 87.1 16.3 36.0 87.1 87.1 10.1 14.6 12.1 68.4 59.3 0.00 0.0442866 94.6
2021-06-11 19:15:00 86.9 16.6 36.2 86.9 86.9 10.8 15.1 11.6 71.7 57.3 0.00 0.0398008 94.4
2021-06-11 19:20:00 86.5 16.8 36.3 86.5 86.5 11.0 13.7 9.7 82.4 65.9 0.00 0.0352863 94.2
2021-06-11 19:25:00 86.1 17.0 36.2 86.1 86.1 10.3 16.9 12.2 43.6 56.4 0.00 0.0308008 94.1
2021-06-11 19:30:00 85.7 17.6 36.7 85.7 85.7 9.6 13.9 10.2 38.9 55.6 0.00 0.0260906 94.0
2021-06-11 19:35:00 85.2 17.9 36.7 85.2 85.2 11.9 13.7 10.5 59.2 56.6 0.00 0.0217599 93.8
2021-06-11 19:40:00 85.0 17.4 35.9 85.0 85.0 11.0 15.6 12.0 60.6 59.3 0.00 0.0169718 93.7
2021-06-11 19:45:00 84.6 17.8 36.2 84.6 84.6 10.5 13.1 10.6 51.7 55.7 0.00 0.0089931 93.4
2021-06-11 19:50:00 84.0 18.4 36.5 84.0 84.0 7.6 14.0 9.6 67.9 52.1 0.00 0.0062373 93.3
2021-06-11 19:55:00 83.7 18.6 36.5 83.7 83.7 9.2 14.9 11.6 37.4 52.0 0.00 0.0045288 93.1
2021-06-11 20:00:00 83.1 18.9 36.5 83.1 83.1 8.8 13.3 10.3 38.2 50.7 0.00 0.0027541 92.9
2021-06-11 20:05:00 82.5 19.5 36.7 82.5 82.5 7.8 11.3 9.0 51.7 54.6 0.00 0.0010931 92.7
2021-06-11 20:10:00 82.0 19.6 36.5 82.0 82.0 10.5 10.6 8.7 62.1 54.4 0.00 0.0000441 92.6
2021-06-11 20:15:00 81.9 19.9 36.7 81.9 81.9 8.5 11.9 9.2 59.1 56.7 0.00 0.0000000 92.3
2021-06-11 20:20:00 81.8 19.9 36.7 81.8 81.8 8.3 12.2 9.8 34.9 52.8 0.00 0.0000000 92.1
2021-06-11 20:25:00 81.3 20.4 36.9 81.3 81.3 8.3 11.2 8.8 70.5 56.6 0.00 0.0000000 92.0
2021-06-11 20:30:00 80.7 20.8 36.9 80.7 80.7 7.4 11.3 8.4 38.0 55.6 0.00 0.0000000 91.8
2021-06-11 20:35:00 80.1 21.4 37.0 80.1 80.1 7.4 10.3 7.6 50.0 53.5 0.00 0.0000000 91.6
2021-06-11 20:40:00 79.8 21.8 37.3 79.8 79.8 7.2 10.8 8.3 36.8 48.1 0.00 0.0000000 91.4
2021-06-11 20:45:00 79.6 22.0 37.4 79.6 79.6 8.7 11.0 8.5 47.4 52.9 0.00 0.0000000 91.2
2021-06-11 20:50:00 79.3 22.3 37.6 79.3 79.3 8.0 10.6 8.8 56.9 53.8 0.00 0.0000000 91.0
2021-06-11 20:55:00 79.0 22.8 37.8 79.0 79.0 8.7 11.2 8.6 65.2 51.2 0.00 0.0000000 90.8
2021-06-11 21:00:00 78.6 23.1 37.9 78.6 78.6 9.4 10.6 8.1 37.8 49.7 0.00 0.0000000 90.6
2021-06-11 21:05:00 78.4 23.5 38.1 78.4 78.4 7.2 11.0 8.3 39.5 50.0 0.00 0.0000000 90.5
2021-06-11 21:10:00 77.8 24.0 38.1 77.8 77.8 8.0 10.1 7.7 51.6 49.6 0.00 0.0000000 90.3
2021-06-11 21:15:00 77.4 24.6 38.4 77.4 77.4 9.6 10.1 8.0 52.3 51.8 0.00 0.0000000 90.1
2021-06-11 21:20:00 77.3 25.0 38.7 77.3 77.3 9.4 11.0 8.8 73.6 51.5 0.00 0.0000000 89.9
2021-06-11 21:25:00 77.2 25.5 39.1 77.2 77.2 7.2 11.0 8.6 68.9 56.8 0.00 0.0000000 89.7
2021-06-11 21:30:00 76.9 25.8 39.2 76.9 76.9 9.2 11.3 8.6 58.2 52.1 0.00 0.0000000 89.5
2021-06-11 21:35:00 76.8 26.1 39.4 76.8 76.8 8.0 10.1 8.0 53.6 53.7 0.00 0.0000000 89.3
2021-06-11 21:40:00 76.5 26.6 39.7 76.5 76.5 8.8 9.6 8.2 49.4 50.1 0.00 0.0000000 89.2
2021-06-11 21:45:00 76.3 27.1 40.0 76.3 76.3 9.4 9.9 8.1 56.5 53.8 0.00 0.0000000 89.0
2021-06-11 21:50:00 76.3 27.3 40.2 76.3 76.3 9.7 11.9 8.3 56.5 49.8 0.00 0.0000000 88.8
2021-06-11 21:55:00 76.2 27.7 40.4 76.2 76.2 7.6 11.3 8.5 52.0 51.2 0.00 0.0000000 88.6
2021-06-11 22:00:00 75.9 28.0 40.5 75.9 75.9 6.3 10.1 7.5 46.4 47.8 0.00 0.0000000 88.5
2021-06-11 22:05:00 75.7 28.3 40.6 75.7 75.7 6.7 9.2 7.3 37.8 44.5 0.00 0.0000000 88.3
2021-06-11 22:10:00 75.7 28.5 40.7 75.7 75.7 8.1 11.5 8.0 54.4 44.3 0.00 0.0000000 88.1
2021-06-11 22:15:00 75.4 28.8 40.8 75.4 75.4 8.8 11.9 8.5 48.5 49.8 0.00 0.0000000 88.0
2021-06-11 22:20:00 75.4 29.0 40.9 75.4 75.4 9.0 11.0 8.7 48.6 46.7 0.00 0.0000000 87.8
2021-06-11 22:25:00 75.1 29.2 40.8 75.1 75.1 9.0 9.7 8.1 44.1 44.7 0.00 0.0000000 87.7
2021-06-11 22:30:00 74.7 29.8 41.0 74.7 74.7 4.7 9.6 6.3 28.9 39.9 0.00 0.0000000 87.5
2021-06-11 22:35:00 74.3 30.2 41.0 74.3 74.3 7.8 8.5 6.1 34.1 37.4 0.00 0.0000000 87.4
2021-06-11 22:40:00 74.2 30.5 41.2 74.2 74.2 6.2 9.0 6.6 47.4 39.2 0.00 0.0000000 87.2
2021-06-11 22:45:00 74.0 30.9 41.4 74.0 74.0 5.5 8.5 6.2 26.6 32.6 0.00 0.0000000 87.1
2021-06-11 22:50:00 73.9 30.9 41.3 73.9 73.9 5.8 8.1 6.6 16.9 33.3 0.00 0.0000000 86.9
2021-06-11 22:55:00 73.6 31.3 41.4 73.6 73.6 5.6 7.6 6.0 9.5 35.1 0.00 0.0000000 86.8
2021-06-11 23:00:00 73.3 31.7 41.5 73.3 73.3 6.0 7.6 6.2 42.5 32.3 0.00 0.0000000 86.6
2021-06-11 23:05:00 73.2 31.7 41.4 73.2 73.2 5.8 8.5 6.9 58.6 39.5 0.00 0.0000000 86.5
2021-06-11 23:10:00 73.1 32.0 41.5 73.1 73.1 4.9 8.7 6.4 28.2 36.6 0.00 0.0000000 86.3
2021-06-11 23:15:00 72.9 32.4 41.7 72.9 72.9 7.4 8.8 6.1 53.6 38.1 0.00 0.0000000 86.2
2021-06-11 23:20:00 72.6 32.7 41.6 72.6 72.6 6.9 8.0 5.9 23.1 29.0 0.00 0.0000000 86.1
2021-06-11 23:25:00 72.3 33.3 41.8 72.3 72.3 5.6 6.9 5.5 44.0 35.7 0.00 0.0000000 85.9
2021-06-11 23:30:00 72.1 33.5 41.9 72.1 72.1 4.2 7.1 5.5 25.3 33.5 0.00 0.0000000 85.8
2021-06-11 23:35:00 72.0 33.6 41.8 72.0 72.0 6.5 8.1 6.1 23.5 30.2 0.00 0.0000000 85.7
2021-06-11 23:40:00 71.8 33.9 41.8 71.8 71.8 5.5 7.8 6.2 35.3 25.9 0.00 0.0000000 85.5
2021-06-11 23:45:00 71.7 34.3 42.0 71.7 71.7 4.9 8.1 6.0 34.5 22.0 0.00 0.0000000 85.4
2021-06-11 23:50:00 71.7 34.2 42.0 71.7 71.7 7.2 8.5 6.4 25.8 26.8 0.00 0.0000000 85.2
2021-06-11 23:55:00 71.8 34.5 42.3 71.8 71.8 6.2 8.8 6.7 37.3 27.6 0.00 0.0000000 85.1
2021-06-12 00:00:00 71.8 34.5 42.3 71.8 71.8 7.2 8.1 6.9 28.0 30.2 0.00 0.0000000 85.0

Data is courtesy of the NM Climate Center. DO NOT USE IN LEGAL PROCEEDINGS.